sensor_id;sensor_type;location;lat;lon;timestamp;P1;durP1;ratioP1;P2;durP2;ratioP2
14181;SDS011;7171;50.936;6.764;2022-08-01T00:00:09;0.90;;;0.90;;
14181;SDS011;7171;50.936;6.764;2022-08-01T00:02:37;0.73;;;0.73;;
14181;SDS011;7171;50.936;6.764;2022-08-01T00:05:04;2.40;;;0.80;;
14181;SDS011;7171;50.936;6.764;2022-08-01T00:07:34;0.98;;;0.88;;
14181;SDS011;7171;50.936;6.764;2022-08-01T00:10:01;0.98;;;0.90;;
14181;SDS011;7171;50.936;6.764;2022-08-01T00:12:29;1.25;;;1.13;;
14181;SDS011;7171;50.936;6.764;2022-08-01T00:14:56;0.98;;;0.88;;
14181;SDS011;7171;50.936;6.764;2022-08-01T00:17:22;1.13;;;1.00;;
14181;SDS011;7171;50.936;6.764;2022-08-01T00:19:49;1.15;;;1.00;;
14181;SDS011;7171;50.936;6.764;2022-08-01T00:22:16;1.38;;;1.10;;
14181;SDS011;7171;50.936;6.764;2022-08-01T00:24:45;0.80;;;0.80;;
14181;SDS011;7171;50.936;6.764;2022-08-01T00:27:11;0.82;;;0.82;;
14181;SDS011;7171;50.936;6.764;2022-08-01T00:29:38;0.90;;;0.90;;
14181;SDS011;7171;50.936;6.764;2022-08-01T00:32:05;1.58;;;1.10;;
14181;SDS011;7171;50.936;6.764;2022-08-01T00:34:32;1.98;;;0.90;;
14181;SDS011;7171;50.936;6.764;2022-08-01T00:36:59;1.15;;;1.05;;
14181;SDS011;7171;50.936;6.764;2022-08-01T00:39:26;0.80;;;0.80;;
14181;SDS011;7171;50.936;6.764;2022-08-01T00:41:54;1.10;;;1.00;;
14181;SDS011;7171;50.936;6.764;2022-08-01T00:44:21;0.77;;;0.77;;
14181;SDS011;7171;50.936;6.764;2022-08-01T00:46:47;0.90;;;0.90;;
14181;SDS011;7171;50.936;6.764;2022-08-01T00:49:14;0.98;;;0.93;;
14181;SDS011;7171;50.936;6.764;2022-08-01T00:51:41;1.25;;;1.15;;
14181;SDS011;7171;50.936;6.764;2022-08-01T00:54:08;1.27;;;1.08;;
14181;SDS011;7171;50.936;6.764;2022-08-01T00:56:35;1.30;;;1.00;;
14181;SDS011;7171;50.936;6.764;2022-08-01T00:59:03;1.27;;;1.13;;
14181;SDS011;7171;50.936;6.764;2022-08-01T01:01:30;0.98;;;0.93;;
14181;SDS011;7171;50.936;6.764;2022-08-01T01:03:57;1.60;;;1.10;;
14181;SDS011;7171;50.936;6.764;2022-08-01T01:06:26;2.22;;;1.17;;
14181;SDS011;7171;50.936;6.764;2022-08-01T01:09:02;3.28;;;1.10;;
14181;SDS011;7171;50.936;6.764;2022-08-01T01:11:40;3.00;;;1.23;;
14181;SDS011;7171;50.936;6.764;2022-08-01T01:14:16;0.90;;;0.90;;
14181;SDS011;7171;50.936;6.764;2022-08-01T01:16:49;1.42;;;1.10;;
14181;SDS011;7171;50.936;6.764;2022-08-01T01:19:20;1.50;;;1.40;;
14181;SDS011;7171;50.936;6.764;2022-08-01T01:21:57;1.10;;;1.00;;
14181;SDS011;7171;50.936;6.764;2022-08-01T01:24:37;1.25;;;1.02;;
14181;SDS011;7171;50.936;6.764;2022-08-01T01:27:16;1.05;;;0.95;;
14181;SDS011;7171;50.936;6.764;2022-08-01T01:29:51;1.30;;;1.10;;
14181;SDS011;7171;50.936;6.764;2022-08-01T01:32:21;1.63;;;1.20;;
14181;SDS011;7171;50.936;6.764;2022-08-01T01:34:54;1.23;;;1.13;;
14181;SDS011;7171;50.936;6.764;2022-08-01T01:37:23;1.25;;;1.00;;
14181;SDS011;7171;50.936;6.764;2022-08-01T01:39:53;1.10;;;0.90;;
14181;SDS011;7171;50.936;6.764;2022-08-01T01:42:21;1.67;;;1.20;;
14181;SDS011;7171;50.936;6.764;2022-08-01T01:44:52;1.63;;;1.52;;
14181;SDS011;7171;50.936;6.764;2022-08-01T01:47:21;1.20;;;1.10;;
14181;SDS011;7171;50.936;6.764;2022-08-01T01:49:50;1.17;;;1.08;;
14181;SDS011;7171;50.936;6.764;2022-08-01T01:52:22;4.50;;;1.40;;
14181;SDS011;7171;50.936;6.764;2022-08-01T01:54:50;1.38;;;1.23;;
14181;SDS011;7171;50.936;6.764;2022-08-01T01:57:18;1.80;;;1.17;;
14181;SDS011;7171;50.936;6.764;2022-08-01T01:59:48;1.80;;;1.25;;
14181;SDS011;7171;50.936;6.764;2022-08-01T02:02:18;0.90;;;0.90;;
14181;SDS011;7171;50.936;6.764;2022-08-01T02:04:46;1.35;;;1.10;;
14181;SDS011;7171;50.936;6.764;2022-08-01T02:07:16;1.30;;;1.20;;
14181;SDS011;7171;50.936;6.764;2022-08-01T02:09:45;1.98;;;1.05;;
14181;SDS011;7171;50.936;6.764;2022-08-01T02:12:13;1.50;;;1.13;;
14181;SDS011;7171;50.936;6.764;2022-08-01T02:14:42;1.30;;;1.20;;
14181;SDS011;7171;50.936;6.764;2022-08-01T02:17:12;0.88;;;0.88;;
14181;SDS011;7171;50.936;6.764;2022-08-01T02:19:44;1.15;;;1.05;;
14181;SDS011;7171;50.936;6.764;2022-08-01T02:22:14;1.90;;;1.20;;
14181;SDS011;7171;50.936;6.764;2022-08-01T02:24:48;1.40;;;1.30;;
14181;SDS011;7171;50.936;6.764;2022-08-01T02:27:20;1.25;;;1.15;;
14181;SDS011;7171;50.936;6.764;2022-08-01T02:29:52;1.40;;;1.30;;
14181;SDS011;7171;50.936;6.764;2022-08-01T02:32:24;1.05;;;0.95;;
14181;SDS011;7171;50.936;6.764;2022-08-01T02:34:57;3.70;;;1.10;;
14181;SDS011;7171;50.936;6.764;2022-08-01T02:37:27;2.38;;;1.30;;
14181;SDS011;7171;50.936;6.764;2022-08-01T02:39:57;1.48;;;1.05;;
14181;SDS011;7171;50.936;6.764;2022-08-01T02:42:26;1.63;;;1.00;;
14181;SDS011;7171;50.936;6.764;2022-08-01T02:44:54;1.75;;;1.13;;
14181;SDS011;7171;50.936;6.764;2022-08-01T02:47:23;2.70;;;1.15;;
14181;SDS011;7171;50.936;6.764;2022-08-01T02:49:53;1.30;;;1.10;;
14181;SDS011;7171;50.936;6.764;2022-08-01T02:52:23;3.60;;;1.38;;
14181;SDS011;7171;50.936;6.764;2022-08-01T02:54:53;1.52;;;1.42;;
14181;SDS011;7171;50.936;6.764;2022-08-01T02:57:22;1.33;;;1.08;;
14181;SDS011;7171;50.936;6.764;2022-08-01T02:59:50;1.17;;;1.08;;
14181;SDS011;7171;50.936;6.764;2022-08-01T03:02:19;1.35;;;1.25;;
14181;SDS011;7171;50.936;6.764;2022-08-01T03:04:47;1.23;;;1.10;;
14181;SDS011;7171;50.936;6.764;2022-08-01T03:07:16;1.05;;;0.95;;
14181;SDS011;7171;50.936;6.764;2022-08-01T03:09:46;1.55;;;1.13;;
14181;SDS011;7171;50.936;6.764;2022-08-01T03:12:16;1.25;;;1.15;;
14181;SDS011;7171;50.936;6.764;2022-08-01T03:14:46;1.35;;;1.25;;
14181;SDS011;7171;50.936;6.764;2022-08-01T03:17:15;1.70;;;1.25;;
14181;SDS011;7171;50.936;6.764;2022-08-01T03:19:43;1.30;;;1.20;;
14181;SDS011;7171;50.936;6.764;2022-08-01T03:22:11;2.70;;;1.45;;
14181;SDS011;7171;50.936;6.764;2022-08-01T03:24:41;1.48;;;1.38;;
14181;SDS011;7171;50.936;6.764;2022-08-01T03:27:11;3.38;;;1.55;;
14181;SDS011;7171;50.936;6.764;2022-08-01T03:29:40;3.88;;;1.63;;
14181;SDS011;7171;50.936;6.764;2022-08-01T03:32:09;2.33;;;1.50;;
14181;SDS011;7171;50.936;6.764;2022-08-01T03:34:37;2.50;;;1.70;;
14181;SDS011;7171;50.936;6.764;2022-08-01T03:37:05;2.25;;;1.40;;
14181;SDS011;7171;50.936;6.764;2022-08-01T03:39:37;1.52;;;1.40;;
14181;SDS011;7171;50.936;6.764;2022-08-01T03:42:12;1.67;;;1.58;;
14181;SDS011;7171;50.936;6.764;2022-08-01T03:44:47;2.97;;;1.88;;
14181;SDS011;7171;50.936;6.764;2022-08-01T03:47:14;2.35;;;1.73;;
14181;SDS011;7171;50.936;6.764;2022-08-01T03:49:44;2.60;;;1.88;;
14181;SDS011;7171;50.936;6.764;2022-08-01T03:52:13;3.35;;;1.95;;
14181;SDS011;7171;50.936;6.764;2022-08-01T03:54:42;1.80;;;1.70;;
14181;SDS011;7171;50.936;6.764;2022-08-01T03:57:12;2.10;;;1.92;;
14181;SDS011;7171;50.936;6.764;2022-08-01T03:59:41;4.72;;;1.77;;
14181;SDS011;7171;50.936;6.764;2022-08-01T04:02:09;2.28;;;2.08;;
14181;SDS011;7171;50.936;6.764;2022-08-01T04:04:38;3.88;;;2.40;;
14181;SDS011;7171;50.936;6.764;2022-08-01T04:07:19;2.33;;;1.77;;
14181;SDS011;7171;50.936;6.764;2022-08-01T04:09:47;1.98;;;1.77;;
14181;SDS011;7171;50.936;6.764;2022-08-01T04:12:14;2.38;;;1.80;;
14181;SDS011;7171;50.936;6.764;2022-08-01T04:14:42;2.10;;;1.90;;
14181;SDS011;7171;50.936;6.764;2022-08-01T04:17:09;2.35;;;2.10;;
14181;SDS011;7171;50.936;6.764;2022-08-01T04:19:36;2.63;;;1.95;;
14181;SDS011;7171;50.936;6.764;2022-08-01T04:22:03;3.70;;;2.15;;
14181;SDS011;7171;50.936;6.764;2022-08-01T04:24:31;2.42;;;2.00;;
14181;SDS011;7171;50.936;6.764;2022-08-01T04:27:00;2.42;;;1.85;;
14181;SDS011;7171;50.936;6.764;2022-08-01T04:29:30;2.50;;;2.30;;
14181;SDS011;7171;50.936;6.764;2022-08-01T04:32:01;2.35;;;2.15;;
14181;SDS011;7171;50.936;6.764;2022-08-01T04:34:30;2.67;;;2.22;;
14181;SDS011;7171;50.936;6.764;2022-08-01T04:36:57;3.40;;;2.35;;
14181;SDS011;7171;50.936;6.764;2022-08-01T04:39:26;2.30;;;2.10;;
14181;SDS011;7171;50.936;6.764;2022-08-01T04:41:56;2.90;;;2.30;;
14181;SDS011;7171;50.936;6.764;2022-08-01T04:44:28;4.13;;;2.38;;
14181;SDS011;7171;50.936;6.764;2022-08-01T04:46:57;2.53;;;2.10;;
14181;SDS011;7171;50.936;6.764;2022-08-01T04:49:27;1.70;;;1.60;;
14181;SDS011;7171;50.936;6.764;2022-08-01T04:51:55;4.13;;;2.08;;
14181;SDS011;7171;50.936;6.764;2022-08-01T04:54:25;3.70;;;2.40;;
14181;SDS011;7171;50.936;6.764;2022-08-01T04:56:52;3.17;;;2.30;;
14181;SDS011;7171;50.936;6.764;2022-08-01T04:59:20;2.30;;;2.10;;
14181;SDS011;7171;50.936;6.764;2022-08-01T05:02:06;2.78;;;2.35;;
14181;SDS011;7171;50.936;6.764;2022-08-01T05:04:35;3.13;;;2.75;;
14181;SDS011;7171;50.936;6.764;2022-08-01T05:07:03;2.53;;;2.25;;
14181;SDS011;7171;50.936;6.764;2022-08-01T05:09:30;2.10;;;1.90;;
14181;SDS011;7171;50.936;6.764;2022-08-01T05:11:57;3.17;;;2.83;;
14181;SDS011;7171;50.936;6.764;2022-08-01T05:14:25;4.10;;;3.03;;
14181;SDS011;7171;50.936;6.764;2022-08-01T05:16:53;5.65;;;3.20;;
14181;SDS011;7171;50.936;6.764;2022-08-01T05:19:21;4.47;;;3.38;;
14181;SDS011;7171;50.936;6.764;2022-08-01T05:21:49;3.92;;;2.95;;
14181;SDS011;7171;50.936;6.764;2022-08-01T05:24:17;5.10;;;3.40;;
14181;SDS011;7171;50.936;6.764;2022-08-01T05:26:43;5.47;;;3.08;;
14181;SDS011;7171;50.936;6.764;2022-08-01T05:29:10;5.68;;;4.03;;
14181;SDS011;7171;50.936;6.764;2022-08-01T05:31:37;4.60;;;3.90;;
14181;SDS011;7171;50.936;6.764;2022-08-01T05:34:04;4.78;;;3.63;;
14181;SDS011;7171;50.936;6.764;2022-08-01T05:36:30;5.15;;;3.83;;
14181;SDS011;7171;50.936;6.764;2022-08-01T05:38:59;3.03;;;2.72;;
14181;SDS011;7171;50.936;6.764;2022-08-01T05:41:26;4.93;;;3.45;;
14181;SDS011;7171;50.936;6.764;2022-08-01T05:43:53;8.10;;;3.55;;
14181;SDS011;7171;50.936;6.764;2022-08-01T05:46:19;5.32;;;4.60;;
14181;SDS011;7171;50.936;6.764;2022-08-01T05:48:46;5.90;;;3.80;;
14181;SDS011;7171;50.936;6.764;2022-08-01T05:51:13;5.85;;;3.90;;
14181;SDS011;7171;50.936;6.764;2022-08-01T05:53:40;5.57;;;3.45;;
14181;SDS011;7171;50.936;6.764;2022-08-01T05:56:08;4.90;;;4.10;;
14181;SDS011;7171;50.936;6.764;2022-08-01T05:58:35;6.60;;;4.28;;
14181;SDS011;7171;50.936;6.764;2022-08-01T06:01:02;4.63;;;3.10;;
14181;SDS011;7171;50.936;6.764;2022-08-01T06:03:28;5.18;;;3.90;;
14181;SDS011;7171;50.936;6.764;2022-08-01T06:05:58;4.32;;;3.30;;
14181;SDS011;7171;50.936;6.764;2022-08-01T06:08:25;4.25;;;3.85;;
14181;SDS011;7171;50.936;6.764;2022-08-01T06:10:52;4.15;;;3.45;;
14181;SDS011;7171;50.936;6.764;2022-08-01T06:13:20;4.80;;;3.17;;
14181;SDS011;7171;50.936;6.764;2022-08-01T06:15:47;4.88;;;3.60;;
14181;SDS011;7171;50.936;6.764;2022-08-01T06:18:14;3.38;;;2.83;;
14181;SDS011;7171;50.936;6.764;2022-08-01T06:20:41;5.05;;;3.95;;
14181;SDS011;7171;50.936;6.764;2022-08-01T06:23:08;5.03;;;3.03;;
14181;SDS011;7171;50.936;6.764;2022-08-01T06:25:35;3.80;;;3.10;;
14181;SDS011;7171;50.936;6.764;2022-08-01T06:28:02;4.95;;;2.92;;
14181;SDS011;7171;50.936;6.764;2022-08-01T06:30:31;3.97;;;2.72;;
14181;SDS011;7171;50.936;6.764;2022-08-01T06:32:57;3.78;;;3.13;;
14181;SDS011;7171;50.936;6.764;2022-08-01T06:35:25;3.80;;;3.33;;
14181;SDS011;7171;50.936;6.764;2022-08-01T06:37:53;4.03;;;2.97;;
14181;SDS011;7171;50.936;6.764;2022-08-01T06:40:20;4.40;;;3.17;;
14181;SDS011;7171;50.936;6.764;2022-08-01T06:42:47;3.50;;;3.03;;
14181;SDS011;7171;50.936;6.764;2022-08-01T06:45:14;3.63;;;2.70;;
14181;SDS011;7171;50.936;6.764;2022-08-01T06:47:43;3.00;;;2.47;;
14181;SDS011;7171;50.936;6.764;2022-08-01T06:50:10;3.40;;;3.10;;
14181;SDS011;7171;50.936;6.764;2022-08-01T06:52:39;5.55;;;3.35;;
14181;SDS011;7171;50.936;6.764;2022-08-01T06:55:06;5.85;;;3.40;;
14181;SDS011;7171;50.936;6.764;2022-08-01T06:57:34;5.00;;;3.15;;
14181;SDS011;7171;50.936;6.764;2022-08-01T07:00:02;3.80;;;3.15;;
14181;SDS011;7171;50.936;6.764;2022-08-01T07:02:30;5.68;;;3.08;;
14181;SDS011;7171;50.936;6.764;2022-08-01T07:04:59;3.08;;;2.78;;
14181;SDS011;7171;50.936;6.764;2022-08-01T07:07:26;5.85;;;3.17;;
14181;SDS011;7171;50.936;6.764;2022-08-01T07:09:53;5.82;;;3.83;;
14181;SDS011;7171;50.936;6.764;2022-08-01T07:12:19;4.05;;;3.58;;
14181;SDS011;7171;50.936;6.764;2022-08-01T07:14:46;4.07;;;3.17;;
14181;SDS011;7171;50.936;6.764;2022-08-01T07:17:13;4.50;;;3.72;;
14181;SDS011;7171;50.936;6.764;2022-08-01T07:19:40;3.95;;;3.28;;
14181;SDS011;7171;50.936;6.764;2022-08-01T07:22:08;4.78;;;3.28;;
14181;SDS011;7171;50.936;6.764;2022-08-01T07:24:35;4.57;;;3.30;;
14181;SDS011;7171;50.936;6.764;2022-08-01T07:27:02;4.95;;;3.28;;
14181;SDS011;7171;50.936;6.764;2022-08-01T07:29:28;3.22;;;2.90;;
14181;SDS011;7171;50.936;6.764;2022-08-01T07:31:56;3.17;;;2.67;;
14181;SDS011;7171;50.936;6.764;2022-08-01T07:34:23;7.13;;;2.97;;
14181;SDS011;7171;50.936;6.764;2022-08-01T07:36:51;3.55;;;3.00;;
14181;SDS011;7171;50.936;6.764;2022-08-01T07:39:19;4.45;;;3.25;;
14181;SDS011;7171;50.936;6.764;2022-08-01T07:41:47;4.68;;;3.03;;
14181;SDS011;7171;50.936;6.764;2022-08-01T07:44:13;4.22;;;3.70;;
14181;SDS011;7171;50.936;6.764;2022-08-01T07:46:40;4.07;;;3.35;;
14181;SDS011;7171;50.936;6.764;2022-08-01T07:49:07;3.50;;;3.15;;
14181;SDS011;7171;50.936;6.764;2022-08-01T07:51:34;3.72;;;3.20;;
14181;SDS011;7171;50.936;6.764;2022-08-01T07:54:01;3.72;;;3.30;;
14181;SDS011;7171;50.936;6.764;2022-08-01T07:56:29;3.53;;;3.13;;
14181;SDS011;7171;50.936;6.764;2022-08-01T07:58:56;3.28;;;2.90;;
14181;SDS011;7171;50.936;6.764;2022-08-01T08:01:22;3.80;;;3.17;;
14181;SDS011;7171;50.936;6.764;2022-08-01T08:03:49;2.63;;;2.42;;
14181;SDS011;7171;50.936;6.764;2022-08-01T08:06:16;3.53;;;3.08;;
14181;SDS011;7171;50.936;6.764;2022-08-01T08:08:43;4.07;;;2.67;;
14181;SDS011;7171;50.936;6.764;2022-08-01T08:11:10;5.95;;;3.42;;
14181;SDS011;7171;50.936;6.764;2022-08-01T08:13:38;3.10;;;2.65;;
14181;SDS011;7171;50.936;6.764;2022-08-01T08:16:05;4.07;;;3.15;;
14181;SDS011;7171;50.936;6.764;2022-08-01T08:18:31;3.45;;;2.83;;
14181;SDS011;7171;50.936;6.764;2022-08-01T08:20:58;5.43;;;3.03;;
14181;SDS011;7171;50.936;6.764;2022-08-01T08:23:25;2.88;;;2.63;;
14181;SDS011;7171;50.936;6.764;2022-08-01T08:26:09;4.00;;;2.80;;
14181;SDS011;7171;50.936;6.764;2022-08-01T08:28:38;3.33;;;2.65;;
14181;SDS011;7171;50.936;6.764;2022-08-01T08:31:05;3.47;;;2.55;;
14181;SDS011;7171;50.936;6.764;2022-08-01T08:33:31;3.25;;;2.42;;
14181;SDS011;7171;50.936;6.764;2022-08-01T08:35:58;3.63;;;2.75;;
14181;SDS011;7171;50.936;6.764;2022-08-01T08:38:25;3.42;;;2.90;;
14181;SDS011;7171;50.936;6.764;2022-08-01T08:40:52;3.83;;;3.15;;
14181;SDS011;7171;50.936;6.764;2022-08-01T08:43:19;3.00;;;2.55;;
14181;SDS011;7171;50.936;6.764;2022-08-01T08:45:49;3.60;;;3.03;;
14181;SDS011;7171;50.936;6.764;2022-08-01T08:48:16;3.05;;;2.65;;
14181;SDS011;7171;50.936;6.764;2022-08-01T08:50:43;2.20;;;2.00;;
14181;SDS011;7171;50.936;6.764;2022-08-01T08:53:13;2.95;;;2.40;;
14181;SDS011;7171;50.936;6.764;2022-08-01T08:55:40;2.95;;;2.40;;
14181;SDS011;7171;50.936;6.764;2022-08-01T08:58:09;3.95;;;2.38;;
14181;SDS011;7171;50.936;6.764;2022-08-01T09:00:38;2.67;;;2.33;;
14181;SDS011;7171;50.936;6.764;2022-08-01T09:03:06;3.38;;;2.80;;
14181;SDS011;7171;50.936;6.764;2022-08-01T09:05:33;3.03;;;2.40;;
14181;SDS011;7171;50.936;6.764;2022-08-01T09:08:00;2.58;;;2.38;;
14181;SDS011;7171;50.936;6.764;2022-08-01T09:10:27;2.97;;;2.70;;
14181;SDS011;7171;50.936;6.764;2022-08-01T09:13:03;3.05;;;2.72;;
14181;SDS011;7171;50.936;6.764;2022-08-01T09:15:39;3.40;;;3.03;;
14181;SDS011;7171;50.936;6.764;2022-08-01T09:18:08;4.32;;;2.78;;
14181;SDS011;7171;50.936;6.764;2022-08-01T09:20:51;3.42;;;2.92;;
14181;SDS011;7171;50.936;6.764;2022-08-01T09:23:30;4.00;;;2.92;;
14181;SDS011;7171;50.936;6.764;2022-08-01T09:25:58;3.25;;;2.95;;
14181;SDS011;7171;50.936;6.764;2022-08-01T09:28:27;3.35;;;3.05;;
14181;SDS011;7171;50.936;6.764;2022-08-01T09:30:55;3.97;;;3.50;;
14181;SDS011;7171;50.936;6.764;2022-08-01T09:33:24;3.35;;;3.03;;
14181;SDS011;7171;50.936;6.764;2022-08-01T09:35:53;3.88;;;2.80;;
14181;SDS011;7171;50.936;6.764;2022-08-01T09:38:21;3.10;;;2.78;;
14181;SDS011;7171;50.936;6.764;2022-08-01T09:40:52;4.55;;;2.75;;
14181;SDS011;7171;50.936;6.764;2022-08-01T09:43:22;2.67;;;2.28;;
14181;SDS011;7171;50.936;6.764;2022-08-01T09:45:50;3.67;;;3.08;;
14181;SDS011;7171;50.936;6.764;2022-08-01T09:48:18;2.83;;;2.55;;
14181;SDS011;7171;50.936;6.764;2022-08-01T09:50:47;3.35;;;3.05;;
14181;SDS011;7171;50.936;6.764;2022-08-01T09:53:15;2.65;;;2.42;;
14181;SDS011;7171;50.936;6.764;2022-08-01T09:55:42;4.20;;;3.22;;
14181;SDS011;7171;50.936;6.764;2022-08-01T09:58:10;3.05;;;2.75;;
14181;SDS011;7171;50.936;6.764;2022-08-01T10:00:38;3.38;;;2.50;;
14181;SDS011;7171;50.936;6.764;2022-08-01T10:03:18;2.72;;;2.45;;
14181;SDS011;7171;50.936;6.764;2022-08-01T10:05:47;4.75;;;2.58;;
14181;SDS011;7171;50.936;6.764;2022-08-01T10:08:15;3.05;;;2.63;;
14181;SDS011;7171;50.936;6.764;2022-08-01T10:10:42;2.63;;;2.28;;
14181;SDS011;7171;50.936;6.764;2022-08-01T10:13:29;5.10;;;3.17;;
14181;SDS011;7171;50.936;6.764;2022-08-01T10:15:56;2.60;;;2.28;;
14181;SDS011;7171;50.936;6.764;2022-08-01T10:18:23;2.33;;;2.13;;
14181;SDS011;7171;50.936;6.764;2022-08-01T10:20:52;2.70;;;2.50;;
14181;SDS011;7171;50.936;6.764;2022-08-01T10:23:20;2.92;;;2.63;;
14181;SDS011;7171;50.936;6.764;2022-08-01T10:25:48;2.47;;;2.20;;
14181;SDS011;7171;50.936;6.764;2022-08-01T10:28:17;2.42;;;2.22;;
14181;SDS011;7171;50.936;6.764;2022-08-01T10:30:45;2.72;;;2.25;;
14181;SDS011;7171;50.936;6.764;2022-08-01T10:33:14;3.22;;;2.22;;
14181;SDS011;7171;50.936;6.764;2022-08-01T10:35:42;2.50;;;2.30;;
14181;SDS011;7171;50.936;6.764;2022-08-01T10:38:13;3.40;;;2.80;;
14181;SDS011;7171;50.936;6.764;2022-08-01T10:40:41;2.40;;;2.20;;
14181;SDS011;7171;50.936;6.764;2022-08-01T10:43:09;2.08;;;1.88;;
14181;SDS011;7171;50.936;6.764;2022-08-01T10:45:35;2.13;;;1.92;;
14181;SDS011;7171;50.936;6.764;2022-08-01T10:48:03;2.13;;;1.92;;
14181;SDS011;7171;50.936;6.764;2022-08-01T10:50:37;2.38;;;2.13;;
14181;SDS011;7171;50.936;6.764;2022-08-01T10:53:09;3.05;;;2.17;;
14181;SDS011;7171;50.936;6.764;2022-08-01T10:55:46;2.10;;;1.90;;
14181;SDS011;7171;50.936;6.764;2022-08-01T10:58:19;2.28;;;1.90;;
14181;SDS011;7171;50.936;6.764;2022-08-01T11:00:47;3.05;;;2.20;;
14181;SDS011;7171;50.936;6.764;2022-08-01T11:03:14;2.13;;;1.92;;
14181;SDS011;7171;50.936;6.764;2022-08-01T11:05:41;2.83;;;2.38;;
14181;SDS011;7171;50.936;6.764;2022-08-01T11:08:11;2.75;;;2.20;;
14181;SDS011;7171;50.936;6.764;2022-08-01T11:10:48;2.13;;;1.92;;
14181;SDS011;7171;50.936;6.764;2022-08-01T11:16:30;3.63;;;1.60;;
14181;SDS011;7171;50.936;6.764;2022-08-01T11:18:58;2.25;;;2.05;;
14181;SDS011;7171;50.936;6.764;2022-08-01T11:27:24;3.63;;;1.83;;
14181;SDS011;7171;50.936;6.764;2022-08-01T11:32:51;1.92;;;1.80;;
14181;SDS011;7171;50.936;6.764;2022-08-01T11:35:19;2.10;;;1.90;;
14181;SDS011;7171;50.936;6.764;2022-08-01T11:37:48;2.15;;;1.83;;
14181;SDS011;7171;50.936;6.764;2022-08-01T11:40:17;1.77;;;1.58;;
14181;SDS011;7171;50.936;6.764;2022-08-01T11:42:47;3.42;;;1.92;;
14181;SDS011;7171;50.936;6.764;2022-08-01T11:45:14;1.75;;;1.55;;
14181;SDS011;7171;50.936;6.764;2022-08-01T11:47:45;1.30;;;1.20;;
14181;SDS011;7171;50.936;6.764;2022-08-01T11:50:31;1.48;;;1.30;;
14181;SDS011;7171;50.936;6.764;2022-08-01T11:52:59;1.92;;;1.65;;
14181;SDS011;7171;50.936;6.764;2022-08-01T11:55:26;2.25;;;1.75;;
14181;SDS011;7171;50.936;6.764;2022-08-01T11:57:59;1.77;;;1.63;;
14181;SDS011;7171;50.936;6.764;2022-08-01T12:00:27;1.52;;;1.42;;
14181;SDS011;7171;50.936;6.764;2022-08-01T12:02:59;1.90;;;1.67;;
14181;SDS011;7171;50.936;6.764;2022-08-01T12:05:27;1.65;;;1.55;;
14181;SDS011;7171;50.936;6.764;2022-08-01T12:07:55;2.35;;;2.10;;
14181;SDS011;7171;50.936;6.764;2022-08-01T12:10:23;1.92;;;1.73;;
14181;SDS011;7171;50.936;6.764;2022-08-01T12:12:52;2.15;;;1.70;;
14181;SDS011;7171;50.936;6.764;2022-08-01T12:15:22;2.63;;;2.35;;
14181;SDS011;7171;50.936;6.764;2022-08-01T12:17:50;2.33;;;2.13;;
14181;SDS011;7171;50.936;6.764;2022-08-01T12:20:19;2.10;;;1.90;;
14181;SDS011;7171;50.936;6.764;2022-08-01T12:22:46;1.90;;;1.70;;
14181;SDS011;7171;50.936;6.764;2022-08-01T12:25:14;3.78;;;2.60;;
14181;SDS011;7171;50.936;6.764;2022-08-01T12:27:42;3.38;;;1.92;;
14181;SDS011;7171;50.936;6.764;2022-08-01T12:30:11;3.15;;;2.30;;
14181;SDS011;7171;50.936;6.764;2022-08-01T12:32:40;2.85;;;2.55;;
14181;SDS011;7171;50.936;6.764;2022-08-01T12:35:08;3.15;;;2.00;;
14181;SDS011;7171;50.936;6.764;2022-08-01T12:37:36;3.13;;;2.78;;
14181;SDS011;7171;50.936;6.764;2022-08-01T12:40:10;2.17;;;1.92;;
14181;SDS011;7171;50.936;6.764;2022-08-01T12:42:37;2.03;;;1.83;;
14181;SDS011;7171;50.936;6.764;2022-08-01T12:45:06;2.10;;;1.85;;
14181;SDS011;7171;50.936;6.764;2022-08-01T12:47:34;1.85;;;1.63;;
14181;SDS011;7171;50.936;6.764;2022-08-01T12:50:04;2.47;;;1.80;;
14181;SDS011;7171;50.936;6.764;2022-08-01T12:52:33;2.40;;;1.75;;
14181;SDS011;7171;50.936;6.764;2022-08-01T12:55:00;1.85;;;1.70;;
14181;SDS011;7171;50.936;6.764;2022-08-01T12:57:36;2.22;;;1.77;;
14181;SDS011;7171;50.936;6.764;2022-08-01T13:00:07;1.30;;;1.20;;
14181;SDS011;7171;50.936;6.764;2022-08-01T13:02:35;1.70;;;1.60;;
14181;SDS011;7171;50.936;6.764;2022-08-01T13:05:04;1.50;;;1.40;;
14181;SDS011;7171;50.936;6.764;2022-08-01T13:07:36;1.65;;;1.55;;
14181;SDS011;7171;50.936;6.764;2022-08-01T13:10:03;1.58;;;1.48;;
14181;SDS011;7171;50.936;6.764;2022-08-01T13:12:31;1.65;;;1.55;;
14181;SDS011;7171;50.936;6.764;2022-08-01T13:14:58;2.22;;;1.75;;
14181;SDS011;7171;50.936;6.764;2022-08-01T13:17:31;1.50;;;1.40;;
14181;SDS011;7171;50.936;6.764;2022-08-01T13:20:00;1.40;;;1.30;;
14181;SDS011;7171;50.936;6.764;2022-08-01T13:22:35;1.45;;;1.35;;
14181;SDS011;7171;50.936;6.764;2022-08-01T13:25:11;1.35;;;1.25;;
14181;SDS011;7171;50.936;6.764;2022-08-01T13:27:38;1.92;;;1.33;;
14181;SDS011;7171;50.936;6.764;2022-08-01T13:30:12;4.57;;;1.23;;
14181;SDS011;7171;50.936;6.764;2022-08-01T13:32:39;1.20;;;1.10;;
14181;SDS011;7171;50.936;6.764;2022-08-01T13:35:08;2.35;;;1.00;;
14181;SDS011;7171;50.936;6.764;2022-08-01T13:37:38;1.48;;;1.30;;
14181;SDS011;7171;50.936;6.764;2022-08-01T13:40:07;1.30;;;1.20;;
14181;SDS011;7171;50.936;6.764;2022-08-01T13:42:34;1.27;;;1.17;;
14181;SDS011;7171;50.936;6.764;2022-08-01T13:45:02;1.45;;;1.25;;
14181;SDS011;7171;50.936;6.764;2022-08-01T13:47:29;1.35;;;1.25;;
14181;SDS011;7171;50.936;6.764;2022-08-01T13:49:56;0.95;;;0.95;;
14181;SDS011;7171;50.936;6.764;2022-08-01T13:52:25;1.20;;;1.10;;
14181;SDS011;7171;50.936;6.764;2022-08-01T13:54:53;1.20;;;1.10;;
14181;SDS011;7171;50.936;6.764;2022-08-01T13:57:21;1.02;;;0.93;;
14181;SDS011;7171;50.936;6.764;2022-08-01T13:59:48;1.45;;;1.17;;
14181;SDS011;7171;50.936;6.764;2022-08-01T14:02:16;1.13;;;1.00;;
14181;SDS011;7171;50.936;6.764;2022-08-01T14:04:43;1.45;;;1.10;;
14181;SDS011;7171;50.936;6.764;2022-08-01T14:07:10;1.33;;;1.10;;
14181;SDS011;7171;50.936;6.764;2022-08-01T14:09:37;1.13;;;1.02;;
14181;SDS011;7171;50.936;6.764;2022-08-01T14:12:06;1.15;;;1.05;;
14181;SDS011;7171;50.936;6.764;2022-08-01T14:14:34;1.30;;;1.20;;
14181;SDS011;7171;50.936;6.764;2022-08-01T14:17:01;1.15;;;1.05;;
14181;SDS011;7171;50.936;6.764;2022-08-01T14:19:29;1.15;;;1.00;;
14181;SDS011;7171;50.936;6.764;2022-08-01T14:21:56;1.20;;;1.10;;
14181;SDS011;7171;50.936;6.764;2022-08-01T14:24:23;1.23;;;1.13;;
14181;SDS011;7171;50.936;6.764;2022-08-01T14:26:52;1.30;;;1.20;;
14181;SDS011;7171;50.936;6.764;2022-08-01T14:29:20;1.48;;;1.00;;
14181;SDS011;7171;50.936;6.764;2022-08-01T14:31:47;1.73;;;1.00;;
14181;SDS011;7171;50.936;6.764;2022-08-01T14:34:14;1.25;;;1.15;;
14181;SDS011;7171;50.936;6.764;2022-08-01T14:36:41;1.05;;;1.02;;
14181;SDS011;7171;50.936;6.764;2022-08-01T14:39:09;1.23;;;1.00;;
14181;SDS011;7171;50.936;6.764;2022-08-01T14:41:36;1.48;;;1.30;;
14181;SDS011;7171;50.936;6.764;2022-08-01T14:44:03;1.10;;;1.00;;
14181;SDS011;7171;50.936;6.764;2022-08-01T14:46:32;1.20;;;1.10;;
14181;SDS011;7171;50.936;6.764;2022-08-01T14:48:59;1.65;;;1.20;;
14181;SDS011;7171;50.936;6.764;2022-08-01T14:51:26;1.17;;;1.08;;
14181;SDS011;7171;50.936;6.764;2022-08-01T14:53:58;1.70;;;1.50;;
14181;SDS011;7171;50.936;6.764;2022-08-01T14:56:25;1.13;;;1.02;;
14181;SDS011;7171;50.936;6.764;2022-08-01T14:58:52;1.42;;;1.33;;
14181;SDS011;7171;50.936;6.764;2022-08-01T15:01:19;1.27;;;1.17;;
14181;SDS011;7171;50.936;6.764;2022-08-01T15:03:47;1.63;;;1.50;;
14181;SDS011;7171;50.936;6.764;2022-08-01T15:06:15;3.22;;;1.90;;
14181;SDS011;7171;50.936;6.764;2022-08-01T15:08:42;1.50;;;1.40;;
14181;SDS011;7171;50.936;6.764;2022-08-01T15:11:10;1.73;;;1.48;;
14181;SDS011;7171;50.936;6.764;2022-08-01T15:13:37;1.83;;;1.50;;
14181;SDS011;7171;50.936;6.764;2022-08-01T15:16:04;1.50;;;1.40;;
14181;SDS011;7171;50.936;6.764;2022-08-01T15:18:31;1.40;;;1.30;;
14181;SDS011;7171;50.936;6.764;2022-08-01T15:21:00;1.30;;;1.20;;